Time;durP1;ratioP1;P1;durP2;ratioP2;P2;SDS_P1;SDS_P2;PMS_P1;PMS_P2;Temp;Humidity;BMP_temperature;BMP_pressure;BME280_temperature;BME280_humidity;BME280_pressure;Samples;Min_cycle;Max_cycle;Signal;HPM_P1;HPM_P2
2022/01/17 00:01:55;;;;;;;89.67;38.40;;;1.00;99.90;;;;;;10462049;28;20056;-84
2022/01/17 00:06:55;;;;;;;80.43;37.50;;;1.00;99.90;;;;;;10440744;28;20089;-84
2022/01/17 00:11:57;;;;;;;84.37;41.80;;;1.00;99.90;;;;;;10459004;28;20056;-84
2022/01/17 00:17:09;;;;;;;80.00;38.37;;;1.10;99.90;;;;;;10438557;28;20061;-84
2022/01/17 00:22:13;;;;;;;73.67;36.13;;;1.10;99.90;;;;;;10454793;28;20040;-84
2022/01/17 00:27:14;;;;;;;73.93;35.53;;;1.10;99.90;;;;;;10454772;28;20448;-85
2022/01/17 00:32:15;;;;;;;73.87;34.83;;;1.10;99.90;;;;;;10454113;28;20043;-84
2022/01/17 00:37:16;;;;;;;68.40;33.80;;;1.20;99.90;;;;;;10454677;28;20112;-83
2022/01/17 00:42:16;;;;;;;62.67;30.33;;;1.20;99.90;;;;;;10457063;28;20097;-86
2022/01/17 00:47:17;;;;;;;71.80;33.53;;;1.20;99.90;;;;;;10465127;28;20041;-84
2022/01/17 00:52:18;;;;;;;58.30;30.63;;;1.20;99.90;;;;;;10436004;28;20053;-85
2022/01/17 00:57:18;;;;;;;56.20;27.33;;;1.30;99.90;;;;;;10449833;28;20453;-84
2022/01/17 01:02:20;;;;;;;59.80;29.27;;;1.30;99.90;;;;;;10452825;28;20028;-83
2022/01/17 01:07:21;;;;;;;55.23;27.73;;;1.30;99.90;;;;;;10465583;28;20048;-84
2022/01/17 01:12:21;;;;;;;52.33;28.40;;;1.30;99.90;;;;;;10457800;28;20053;-85
2022/01/17 01:17:34;;;;;;;55.10;28.50;;;1.30;99.90;;;;;;10465820;28;20502;-84
2022/01/17 01:27:57;;;;;;;46.90;25.07;;;1.40;99.90;;;;;;10451867;28;20048;-85
2022/01/17 01:32:59;;;;;;;51.37;24.57;;;1.40;99.90;;;;;;10452686;28;20648;-84
2022/01/17 01:38:00;;;;;;;37.23;20.37;;;1.40;99.90;;;;;;10451879;28;20029;-84
2022/01/17 01:43:01;;;;;;;35.87;18.67;;;1.40;99.90;;;;;;10433551;28;20037;-84
2022/01/17 01:48:02;;;;;;;40.13;21.23;;;1.50;99.90;;;;;;10451728;28;20083;-85
2022/01/17 01:53:04;;;;;;;42.23;20.63;;;1.50;99.90;;;;;;10452041;28;20039;-84
2022/01/17 01:58:05;;;;;;;41.40;20.23;;;1.50;99.90;;;;;;10450782;28;20029;-84
2022/01/17 02:03:06;;;;;;;35.63;18.07;;;1.50;99.90;;;;;;10465074;28;20036;-84
2022/01/17 02:08:14;;;;;;;32.93;17.77;;;1.60;99.90;;;;;;10454564;28;20040;-83
2022/01/17 02:13:15;;;;;;;35.17;17.40;;;1.60;99.90;;;;;;10464106;28;20052;-85
2022/01/17 02:18:28;;;;;;;32.77;17.07;;;1.60;99.90;;;;;;10466414;28;20047;-84
2022/01/17 02:23:30;;;;;;;35.77;20.10;;;1.70;99.90;;;;;;10450807;28;20073;-83
2022/01/17 02:28:35;;;;;;;31.50;15.93;;;1.70;99.90;;;;;;10452086;28;20170;-84
2022/01/17 02:33:36;;;;;;;31.87;17.00;;;1.70;99.90;;;;;;10431873;28;20025;-83
2022/01/17 02:38:40;;;;;;;37.20;19.57;;;1.70;99.90;;;;;;10453609;28;20123;-84
2022/01/17 02:43:41;;;;;;;41.63;21.40;;;1.70;99.90;;;;;;10479195;28;20029;-85
2022/01/17 02:48:42;;;;;;;36.43;20.07;;;1.80;99.90;;;;;;10462590;28;20044;-85
2022/01/17 02:53:43;;;;;;;41.57;21.63;;;1.80;99.90;;;;;;10449480;28;20021;-84
2022/01/17 02:58:44;;;;;;;40.23;21.43;;;1.80;99.90;;;;;;10449908;28;20039;-84
2022/01/17 03:03:45;;;;;;;38.07;19.00;;;1.80;99.90;;;;;;10448391;28;20063;-85
2022/01/17 03:08:47;;;;;;;32.80;17.07;;;1.80;99.90;;;;;;10465586;28;20048;-85
2022/01/17 03:13:50;;;;;;;29.33;15.90;;;1.80;99.90;;;;;;10449259;28;20126;-85
2022/01/17 03:18:51;;;;;;;32.53;15.87;;;1.70;99.90;;;;;;10450679;28;20033;-85
2022/01/17 03:23:53;;;;;;;32.53;16.73;;;1.70;99.90;;;;;;10433207;28;20029;-85
2022/01/17 03:28:53;;;;;;;26.33;13.93;;;1.70;99.90;;;;;;10456463;28;20061;-84
2022/01/17 03:33:54;;;;;;;30.20;15.90;;;1.80;99.90;;;;;;10456317;28;20060;-84
2022/01/17 03:38:56;;;;;;;37.50;17.43;;;1.70;99.90;;;;;;10457448;28;20039;-84
2022/01/17 03:43:56;;;;;;;61.00;25.00;;;1.80;99.90;;;;;;10456915;28;20029;-83
2022/01/17 03:48:57;;;;;;;97.43;34.30;;;1.80;99.90;;;;;;10455705;28;20044;-84
2022/01/17 03:53:58;;;;;;;41.80;20.97;;;1.80;99.90;;;;;;10456167;28;20108;-83
2022/01/17 03:58:58;;;;;;;67.93;28.63;;;1.80;99.90;;;;;;10440338;28;20071;-82
2022/01/17 04:03:59;;;;;;;52.50;24.40;;;1.80;99.90;;;;;;10454922;28;20044;-84
2022/01/17 04:09:00;;;;;;;34.53;18.00;;;1.80;99.90;;;;;;10454772;28;20048;-83
2022/01/17 04:14:01;;;;;;;34.13;18.20;;;1.80;99.90;;;;;;10449428;28;20113;-82
2022/01/17 04:19:02;;;;;;;70.90;31.67;;;1.90;99.90;;;;;;10472228;28;20117;-80
2022/01/17 04:24:03;;;;;;;38.23;18.67;;;2.00;99.90;;;;;;10475430;28;20033;-86
2022/01/17 04:29:04;;;;;;;75.57;31.60;;;2.00;99.90;;;;;;10454472;28;20036;-83
2022/01/17 04:34:05;;;;;;;54.23;24.77;;;2.00;99.90;;;;;;10454066;28;20040;-82
2022/01/17 04:39:05;;;;;;;52.43;23.30;;;2.10;99.90;;;;;;10454482;28;20151;-83
2022/01/17 04:49:25;;;;;;;31.77;16.13;;;2.30;99.90;;;;;;10475141;28;20044;-80
2022/01/17 04:54:42;;;;;;;41.43;21.30;;;2.40;99.90;;;;;;10453423;28;20025;-84
2022/01/17 04:59:43;;;;;;;37.13;19.23;;;2.40;99.90;;;;;;10485403;28;20047;-82
2022/01/17 05:04:45;;;;;;;29.27;17.07;;;2.30;99.90;;;;;;10455262;28;20043;-83
2022/01/17 05:09:47;;;;;;;39.33;19.07;;;2.40;99.90;;;;;;10462558;28;20123;-86
2022/01/17 05:14:50;;;;;;;35.53;17.50;;;2.40;99.90;;;;;;10452499;28;20080;-81
2022/01/17 05:19:56;;;;;;;39.77;19.00;;;2.40;99.90;;;;;;10450810;28;20040;-83
2022/01/17 05:24:57;;;;;;;35.78;18.55;;;2.40;99.90;;;;;;10475401;28;20037;-84
2022/01/17 05:29:58;;;;;;;38.47;19.10;;;2.40;99.90;;;;;;10451873;28;20032;-83
2022/01/17 05:34:59;;;;;;;36.67;18.23;;;2.30;99.90;;;;;;10437841;28;20501;-86
2022/01/17 05:40:00;;;;;;;33.70;18.23;;;2.30;99.90;;;;;;10450789;28;20104;-85
2022/01/17 05:45:01;;;;;;;34.40;17.93;;;2.20;99.90;;;;;;10454280;28;20481;-84
2022/01/17 05:50:03;;;;;;;33.73;18.00;;;2.20;99.90;;;;;;10452144;28;20025;-84
2022/01/17 05:55:06;;;;;;;43.70;20.83;;;2.20;99.90;;;;;;10451910;28;20060;-84
2022/01/17 06:00:11;;;;;;;33.87;16.53;;;2.30;99.90;;;;;;10434698;28;20071;-82
2022/01/17 06:05:12;;;;;;;24.07;12.43;;;2.40;99.90;;;;;;10466619;28;20536;-84
2022/01/17 06:10:13;;;;;;;27.80;13.23;;;2.50;99.90;;;;;;10439875;28;20488;-85
2022/01/17 06:15:14;;;;;;;18.67;9.47;;;2.60;99.90;;;;;;10450960;28;20045;-86
2022/01/17 06:20:15;;;;;;;32.17;13.10;;;2.80;99.90;;;;;;10433068;28;20028;-83
2022/01/17 06:25:15;;;;;;;32.80;13.40;;;2.80;99.90;;;;;;10451495;28;20059;-84
2022/01/17 06:30:16;;;;;;;38.67;15.63;;;2.80;99.90;;;;;;10448408;28;20116;-84
2022/01/17 06:35:17;;;;;;;29.73;13.33;;;2.80;99.90;;;;;;10438295;28;20024;-84
2022/01/17 06:40:19;;;;;;;25.30;12.73;;;2.70;99.90;;;;;;10441736;28;20024;-84
2022/01/17 06:45:19;;;;;;;24.40;11.03;;;2.60;99.90;;;;;;10430905;28;20037;-86
2022/01/17 06:50:20;;;;;;;20.20;10.73;;;2.50;99.90;;;;;;10438982;28;20021;-85
2022/01/17 06:55:21;;;;;;;19.57;10.40;;;2.50;99.90;;;;;;10420355;28;20020;-83
2022/01/17 07:00:22;;;;;;;22.97;11.87;;;2.50;99.90;;;;;;10441345;28;20017;-83
2022/01/17 07:05:23;;;;;;;22.67;12.23;;;2.50;99.90;;;;;;10445078;28;20021;-84
2022/01/17 07:10:25;;;;;;;24.73;12.93;;;2.50;99.90;;;;;;10443703;28;20028;-84
2022/01/17 07:15:26;;;;;;;28.83;13.50;;;2.60;99.90;;;;;;10446361;28;20102;-84
2022/01/17 07:20:27;;;;;;;25.93;13.97;;;2.60;99.90;;;;;;10488548;28;20434;-83
2022/01/17 07:25:28;;;;;;;25.90;11.83;;;2.70;99.90;;;;;;10490639;28;20384;-84
2022/01/17 07:30:29;;;;;;;26.17;12.70;;;2.70;99.90;;;;;;10489057;28;20033;-86
2022/01/17 07:35:29;;;;;;;23.67;13.00;;;2.80;99.90;;;;;;10486287;28;20074;-84
2022/01/17 07:40:32;;;;;;;24.50;12.20;;;2.90;99.90;;;;;;10487278;28;20032;-84
2022/01/17 07:45:32;;;;;;;23.77;13.20;;;3.00;99.90;;;;;;10486902;28;20032;-83
2022/01/17 07:50:33;;;;;;;24.37;13.53;;;3.00;99.90;;;;;;10490140;28;20024;-85
2022/01/17 07:55:34;;;;;;;21.13;11.00;;;3.00;99.90;;;;;;10491035;28;20472;-85
2022/01/17 08:00:34;;;;;;;21.53;10.90;;;3.10;99.90;;;;;;10468013;28;20032;-85
2022/01/17 08:05:35;;;;;;;19.30;11.20;;;3.20;99.90;;;;;;10448773;28;20021;-86
2022/01/17 08:10:38;;;;;;;41.03;17.50;;;3.30;99.90;;;;;;10456813;28;20694;-83
2022/01/17 08:15:39;;;;;;;37.40;15.27;;;3.30;99.90;;;;;;10457771;28;20577;-83
2022/01/17 08:20:40;;;;;;;39.53;16.80;;;3.30;99.90;;;;;;10442284;28;20116;-85
2022/01/17 08:25:41;;;;;;;40.70;18.43;;;3.20;99.90;;;;;;10466503;28;20040;-84
2022/01/17 08:30:42;;;;;;;28.87;13.70;;;3.20;99.90;;;;;;10457003;28;20033;-84
2022/01/17 08:35:43;;;;;;;26.50;13.57;;;3.20;99.90;;;;;;10455589;28;20039;-86
2022/01/17 08:40:43;;;;;;;33.63;15.70;;;3.20;99.90;;;;;;10437152;28;20420;-86
2022/01/17 08:45:44;;;;;;;34.17;14.97;;;3.30;99.90;;;;;;10454610;28;20036;-84
2022/01/17 08:50:47;;;;;;;32.77;15.77;;;3.20;99.90;;;;;;10455245;28;20025;-85
2022/01/17 08:55:47;;;;;;;36.93;16.23;;;3.10;99.90;;;;;;10454532;28;20064;-83
2022/01/17 09:00:49;;;;;;;40.53;19.63;;;3.10;99.90;;;;;;10454632;28;20526;-86
2022/01/17 09:05:51;;;;;;;29.23;14.63;;;3.10;99.90;;;;;;10446225;28;20044;-85
2022/01/17 09:10:55;;;;;;;26.70;15.00;;;3.10;99.90;;;;;;10488022;28;20033;-84
2022/01/17 09:15:55;;;;;;;27.80;15.50;;;2.90;99.90;;;;;;10495374;28;20057;-85
2022/01/17 09:20:56;;;;;;;32.63;16.40;;;2.90;99.90;;;;;;10495251;28;20468;-83
2022/01/17 09:25:57;;;;;;;25.30;14.37;;;3.00;99.90;;;;;;10494459;28;20040;-84
2022/01/17 09:30:58;;;;;;;32.93;17.17;;;3.00;99.90;;;;;;10494835;28;20147;-83
2022/01/17 09:35:58;;;;;;;40.33;20.23;;;3.00;99.90;;;;;;10493772;28;20044;-84
2022/01/17 09:41:01;;;;;;;49.60;23.00;;;3.00;99.90;;;;;;10495065;28;20039;-82
2022/01/17 09:46:02;;;;;;;33.07;17.63;;;3.00;99.90;;;;;;10493866;28;20043;-84
2022/01/17 09:51:19;;;;;;;26.40;13.53;;;3.10;99.90;;;;;;10493473;28;20644;-83
2022/01/17 09:56:23;;;;;;;20.60;9.87;;;3.20;99.90;;;;;;10493765;28;20032;-86
2022/01/17 10:01:25;;;;;;;19.53;10.97;;;3.30;99.90;;;;;;10493284;28;20028;-83
2022/01/17 10:06:26;;;;;;;17.10;8.40;;;3.40;99.90;;;;;;10462989;28;20054;-81
2022/01/17 10:11:27;;;;;;;17.87;7.87;;;3.40;99.90;;;;;;10492973;28;20032;-83
2022/01/17 10:16:29;;;;;;;14.57;6.67;;;3.40;99.90;;;;;;10474906;28;20031;-84
2022/01/17 10:21:33;;;;;;;14.97;8.10;;;3.30;99.90;;;;;;10470813;28;20650;-85
2022/01/17 10:36:56;;;;;;;24.47;10.50;;;3.20;99.90;;;;;;10449951;28;20041;-83
2022/01/17 10:41:56;;;;;;;21.20;9.17;;;3.20;99.90;;;;;;10465857;28;20028;-83
2022/01/17 10:47:26;;;;;;;26.73;11.53;;;3.20;99.90;;;;;;10491838;28;20728;-85
2022/01/17 10:52:39;;;;;;;22.10;10.73;;;3.10;99.90;;;;;;10492604;28;20036;-85
2022/01/17 10:57:43;;;;;;;30.83;13.17;;;3.10;99.90;;;;;;10491783;28;20035;-83
2022/01/17 11:02:47;;;;;;;25.00;12.20;;;3.00;99.90;;;;;;10491354;28;20640;-85
2022/01/17 11:07:53;;;;;;;37.80;17.30;;;3.00;99.90;;;;;;10472866;28;20033;-84
2022/01/17 11:12:56;;;;;;;28.23;13.77;;;3.10;99.90;;;;;;10490890;28;20052;-86
2022/01/17 11:18:01;;;;;;;41.30;18.77;;;3.10;99.90;;;;;;10491488;28;20024;-85
2022/01/17 11:23:04;;;;;;;30.30;14.17;;;3.10;99.90;;;;;;10491399;28;20028;-85
2022/01/17 11:28:06;;;;;;;31.33;14.80;;;3.10;99.90;;;;;;10491330;28;20037;-84
2022/01/17 11:33:09;;;;;;;36.93;20.13;;;3.10;99.90;;;;;;10490087;28;20025;-86
2022/01/17 11:38:13;;;;;;;40.53;18.33;;;3.10;99.90;;;;;;10490234;28;20380;-85
2022/01/17 11:43:17;;;;;;;27.33;13.77;;;3.00;99.90;;;;;;10490456;28;20060;-85
2022/01/17 11:48:25;;;;;;;31.97;14.90;;;3.00;99.90;;;;;;10498193;28;20040;-84
2022/01/17 11:53:27;;;;;;;36.83;17.30;;;3.00;99.90;;;;;;10498406;28;20511;-85
2022/01/17 11:58:30;;;;;;;25.20;11.83;;;3.00;99.90;;;;;;10498539;28;20020;-84
2022/01/17 12:03:45;;;;;;;2.93;0.70;;;3.00;99.90;;;;;;10480433;28;20025;-87
2022/01/17 12:08:46;;;;;;;1.70;0.73;;;2.50;99.90;;;;;;10497888;28;20039;-82
2022/01/17 12:13:47;;;;;;;10.60;1.23;;;1.30;99.90;;;;;;10497165;28;20052;-82
2022/01/17 12:19:05;;;;;;;2.53;1.37;;;0.70;99.90;;;;;;10497017;28;20028;-81
2022/01/17 12:24:17;;;;;;;5.07;1.30;;;0.50;99.90;;;;;;10497525;28;20032;-82
2022/01/17 12:29:46;;;;;;;5.27;1.67;;;0.30;99.90;;;;;;10496636;28;20044;-82
2022/01/17 12:34:48;;;;;;;4.33;1.90;;;0.20;99.90;;;;;;10497018;28;20024;-84
2022/01/17 12:39:51;;;;;;;3.30;1.37;;;0.10;99.90;;;;;;10495949;28;20468;-85
2022/01/17 12:45:01;;;;;;;4.70;1.83;;;0.20;99.90;;;;;;10496394;28;20016;-86
2022/01/17 12:50:05;;;;;;;7.27;1.90;;;0.30;99.90;;;;;;10496320;28;20090;-82
2022/01/17 12:55:06;;;;;;;6.10;2.00;;;0.30;99.90;;;;;;10495993;28;20021;-81
2022/01/17 13:00:15;;;;;;;4.63;1.77;;;0.30;99.90;;;;;;10495604;28;20464;-82
2022/01/17 13:05:24;;;;;;;13.47;4.30;;;0.30;99.90;;;;;;10495416;28;20020;-83
2022/01/17 13:10:25;;;;;;;14.10;4.90;;;0.30;99.90;;;;;;10494740;28;20101;-81
2022/01/17 13:15:27;;;;;;;16.70;5.60;;;0.40;99.90;;;;;;10495393;28;20129;-81
2022/01/17 13:20:28;;;;;;;15.97;4.97;;;0.40;99.90;;;;;;10477518;28;20027;-82
2022/01/17 13:25:29;;;;;;;13.73;4.37;;;0.30;99.90;;;;;;10494352;28;20041;-86
2022/01/17 13:30:34;;;;;;;9.40;3.50;;;0.30;99.90;;;;;;10494433;28;20369;-81
2022/01/17 13:35:37;;;;;;;8.02;1.98;;;0.20;99.90;;;;;;10412172;28;20021;-81
2022/01/17 13:40:38;;;;;;;9.97;2.87;;;0.00;99.90;;;;;;10439114;28;20028;-80
2022/01/17 13:45:44;;;;;;;8.73;3.30;;;-0.10;99.90;;;;;;10465403;28;20032;-84
2022/01/17 13:51:05;;;;;;;11.05;3.97;;;-0.10;99.90;;;;;;10472848;28;20025;-84
2022/01/17 13:56:08;;;;;;;10.50;4.30;;;-0.20;99.90;;;;;;10492988;28;20436;-84
2022/01/17 14:01:10;;;;;;;9.80;4.17;;;-0.30;99.90;;;;;;10450695;28;20025;-84
2022/01/17 14:06:15;;;;;;;16.37;5.80;;;-0.20;99.90;;;;;;10448853;28;20033;-84
2022/01/17 14:11:22;;;;;;;18.90;7.33;;;-0.10;99.90;;;;;;10435169;28;20080;-82
2022/01/17 14:16:30;;;;;;;31.80;13.50;;;-0.10;99.90;;;;;;10451602;28;20033;-82
2022/01/17 14:21:40;;;;;;;24.47;10.20;;;0.00;99.90;;;;;;10451638;28;20092;-82
2022/01/17 14:26:55;;;;;;;27.30;10.57;;;0.10;99.90;;;;;;10450350;28;20075;-82
2022/01/17 14:31:58;;;;;;;24.67;10.93;;;0.10;99.90;;;;;;10449535;28;20075;-86
2022/01/17 14:37:22;;;;;;;29.37;11.60;;;0.20;99.90;;;;;;10451130;28;20295;-85
2022/01/17 14:42:30;;;;;;;51.03;20.47;;;0.10;99.90;;;;;;10425011;28;20056;-84
2022/01/17 14:47:43;;;;;;;30.20;12.97;;;0.00;99.90;;;;;;10440565;28;20041;-84
2022/01/17 14:52:44;;;;;;;28.47;10.83;;;-0.10;99.90;;;;;;10454474;28;20603;-82
2022/01/17 15:08:11;;;;;;;68.53;27.90;;;-0.20;99.90;;;;;;10451608;28;20047;-82
2022/01/17 15:13:12;;;;;;;54.37;21.10;;;-0.30;99.90;;;;;;10449525;28;20056;-85
2022/01/17 15:18:15;;;;;;;54.20;21.90;;;-0.40;99.90;;;;;;10449378;28;20106;-83
2022/01/17 15:23:22;;;;;;;74.63;33.97;;;-0.40;99.90;;;;;;10448954;28;20472;-83
2022/01/17 15:28:23;;;;;;;57.30;24.27;;;-0.40;99.90;;;;;;10449325;28;20428;-82
2022/01/17 15:33:25;;;;;;;97.57;40.70;;;-0.50;99.90;;;;;;10449367;28;20029;-82
2022/01/17 15:38:26;;;;;;;150.77;63.00;;;-0.50;99.90;;;;;;10449386;28;20440;-83
2022/01/17 15:43:27;;;;;;;140.00;58.53;;;-0.50;99.90;;;;;;10449540;28;20120;-83
2022/01/17 15:48:27;;;;;;;245.43;101.60;;;-0.40;99.90;;;;;;10449491;28;20036;-82
2022/01/17 15:53:28;;;;;;;252.23;105.10;;;-0.30;99.90;;;;;;10449161;28;20028;-84
2022/01/17 15:58:29;;;;;;;130.20;54.33;;;-0.30;99.90;;;;;;10431265;28;20060;-82
2022/01/17 16:03:29;;;;;;;136.37;56.57;;;-0.20;99.90;;;;;;10448991;28;20036;-84
2022/01/17 16:08:30;;;;;;;92.57;40.03;;;-0.10;99.90;;;;;;10448903;28;20055;-83
2022/01/17 16:13:31;;;;;;;172.33;71.73;;;-0.10;99.90;;;;;;10448664;28;20053;-83
2022/01/17 16:18:32;;;;;;;74.60;31.00;;;0.00;99.90;;;;;;10448166;28;20026;-86
2022/01/17 16:23:35;;;;;;;82.37;32.30;;;0.00;99.90;;;;;;10448949;28;20029;-83
2022/01/17 16:28:35;;;;;;;43.77;18.07;;;-0.10;99.90;;;;;;10447775;28;20460;-87
2022/01/17 16:33:37;;;;;;;38.53;15.93;;;-0.10;99.90;;;;;;10452988;28;20032;-82
2022/01/17 16:38:39;;;;;;;33.37;14.97;;;-0.10;99.90;;;;;;10455329;28;20104;-85
2022/01/17 16:43:43;;;;;;;32.07;11.90;;;-0.10;99.90;;;;;;10448626;28;20033;-84
2022/01/17 16:48:45;;;;;;;31.90;11.83;;;-0.10;99.90;;;;;;10458167;28;20032;-90
2022/01/17 16:53:46;;;;;;;25.03;9.93;;;0.00;99.90;;;;;;10441665;28;20086;-88
2022/01/17 16:58:47;;;;;;;23.20;9.77;;;0.00;99.90;;;;;;10421324;28;20021;-84
2022/01/17 17:03:48;;;;;;;20.33;8.70;;;0.00;99.90;;;;;;10444020;28;20120;-83
2022/01/17 17:08:48;;;;;;;18.50;7.07;;;-0.10;99.90;;;;;;10458959;28;20132;-84
2022/01/17 17:13:49;;;;;;;19.03;6.53;;;-0.10;99.90;;;;;;10452507;28;20834;-84
2022/01/17 17:18:50;;;;;;;18.73;6.60;;;-0.10;99.90;;;;;;10452985;28;20040;-83
2022/01/17 17:23:51;;;;;;;18.03;7.77;;;-0.10;99.90;;;;;;10452767;28;20032;-87
2022/01/17 17:28:51;;;;;;;20.50;7.17;;;-0.20;99.90;;;;;;10451952;28;20106;-84
2022/01/17 17:33:52;;;;;;;22.47;7.40;;;-0.20;99.90;;;;;;10433763;28;20060;-85
2022/01/17 17:38:53;;;;;;;24.90;7.97;;;-0.20;99.90;;;;;;10451270;28;20094;-89
2022/01/17 17:43:55;;;;;;;26.87;8.73;;;-0.30;99.90;;;;;;10448328;28;20037;-83
2022/01/17 17:48:55;;;;;;;18.33;7.80;;;-0.30;99.90;;;;;;10452252;28;20047;-84
2022/01/17 17:53:57;;;;;;;20.43;6.67;;;-0.30;99.90;;;;;;10451130;28;20029;-84
2022/01/17 17:58:58;;;;;;;19.07;6.60;;;-0.30;99.90;;;;;;10450732;28;20028;-84
2022/01/17 18:03:59;;;;;;;16.50;4.90;;;-0.30;99.90;;;;;;10439144;28;20032;-84
2022/01/17 18:09:00;;;;;;;13.57;4.40;;;-0.40;99.90;;;;;;10449714;28;20049;-82
2022/01/17 18:14:01;;;;;;;15.77;5.50;;;-0.40;99.90;;;;;;10442248;28;20458;-81
2022/01/17 18:19:02;;;;;;;21.13;7.23;;;-0.40;99.90;;;;;;10444491;28;20076;-84
2022/01/17 18:24:04;;;;;;;20.63;7.03;;;-0.50;99.90;;;;;;10447611;28;20492;-83
2022/01/17 18:29:05;;;;;;;21.57;8.60;;;-0.50;99.90;;;;;;10450463;28;20041;-82
2022/01/17 18:34:06;;;;;;;26.90;8.77;;;-0.60;99.90;;;;;;10466460;28;20107;-82
2022/01/17 18:39:07;;;;;;;29.50;9.80;;;-0.50;99.90;;;;;;10460957;28;20532;-82
2022/01/17 18:44:08;;;;;;;27.83;8.63;;;-0.60;99.90;;;;;;10448049;28;20504;-84
2022/01/17 18:49:09;;;;;;;35.50;9.60;;;-0.60;99.90;;;;;;10449867;28;20404;-80
2022/01/17 18:54:10;;;;;;;32.70;11.23;;;-0.60;99.90;;;;;;10447887;28;20037;-84
2022/01/17 18:59:11;;;;;;;32.93;10.63;;;-0.70;99.90;;;;;;10438503;28;20175;-82
2022/01/17 19:04:11;;;;;;;27.47;9.47;;;-0.70;99.90;;;;;;10449128;28;20025;-82
2022/01/17 19:09:12;;;;;;;26.47;8.77;;;-0.70;99.90;;;;;;10430461;28;20276;-87
2022/01/17 19:14:13;;;;;;;23.93;8.10;;;-0.80;99.90;;;;;;10435301;28;20385;-83
2022/01/17 19:19:30;;;;;;;23.87;8.17;;;-0.80;99.90;;;;;;10453556;28;20036;-87
2022/01/17 19:24:31;;;;;;;29.90;8.50;;;-0.90;99.90;;;;;;10442265;28;20028;-84
2022/01/17 19:29:32;;;;;;;30.77;8.03;;;-0.90;99.90;;;;;;10446535;28;20462;-86
2022/01/17 19:34:33;;;;;;;21.07;8.00;;;-0.90;99.90;;;;;;10448083;28;20384;-81
2022/01/17 19:39:35;;;;;;;25.30;9.50;;;-0.90;99.90;;;;;;10449417;28;20487;-83
2022/01/17 19:44:36;;;;;;;27.50;9.73;;;-1.00;99.90;;;;;;10431184;28;20017;-84
2022/01/17 19:49:36;;;;;;;24.77;7.93;;;-1.00;99.90;;;;;;10451347;28;20039;-83
2022/01/17 19:54:38;;;;;;;18.30;7.43;;;-1.00;99.90;;;;;;10448977;28;20128;-88
2022/01/17 19:59:41;;;;;;;16.77;7.13;;;-1.00;99.90;;;;;;10447435;28;20098;-83
2022/01/17 20:04:42;;;;;;;17.73;7.50;;;-1.00;99.90;;;;;;10431888;28;20025;-86
2022/01/17 20:09:43;;;;;;;21.20;6.57;;;-1.00;99.90;;;;;;10440294;28;20033;-83
2022/01/17 20:14:44;;;;;;;25.33;8.70;;;-1.10;99.90;;;;;;10453698;28;20060;-88
2022/01/17 20:19:45;;;;;;;28.40;8.47;;;-1.10;99.90;;;;;;10449449;28;20039;-85
2022/01/17 20:24:46;;;;;;;24.13;7.27;;;-1.10;99.90;;;;;;10459092;28;20103;-86
2022/01/17 20:29:47;;;;;;;25.73;7.80;;;-1.20;99.90;;;;;;10437309;28;20028;-88
2022/01/17 20:34:47;;;;;;;23.93;7.80;;;-1.20;99.90;;;;;;10438460;28;20380;-86
2022/01/17 20:39:48;;;;;;;33.40;9.63;;;-1.30;99.90;;;;;;10445882;28;20059;-85
2022/01/17 20:44:49;;;;;;;25.37;8.93;;;-1.30;99.90;;;;;;10454859;28;20389;-84
2022/01/17 20:49:49;;;;;;;27.37;7.83;;;-1.40;99.90;;;;;;10435382;28;20117;-84
2022/01/17 20:54:50;;;;;;;21.70;7.50;;;-1.30;99.90;;;;;;10454532;28;20041;-84
2022/01/17 20:59:52;;;;;;;23.87;8.43;;;-1.40;99.90;;;;;;10468025;28;20035;-85
2022/01/17 21:04:52;;;;;;;33.90;9.17;;;-1.40;99.90;;;;;;10443750;28;20461;-84
2022/01/17 21:09:53;;;;;;;29.20;9.83;;;-1.50;99.90;;;;;;10488849;28;20044;-86
2022/01/17 21:14:54;;;;;;;27.13;9.80;;;-1.50;99.90;;;;;;10437995;28;20053;-87
2022/01/17 21:19:54;;;;;;;28.93;10.90;;;-1.60;99.90;;;;;;10452680;28;20090;-83
2022/01/17 21:24:56;;;;;;;27.90;8.90;;;-1.60;99.90;;;;;;10452901;28;20056;-83
2022/01/17 21:29:58;;;;;;;69.47;23.40;;;-1.60;99.90;;;;;;10449681;28;20060;-84
2022/01/17 21:34:59;;;;;;;78.53;30.27;;;-1.60;99.90;;;;;;10452406;28;20139;-85
2022/01/17 21:40:00;;;;;;;192.37;68.70;;;-1.70;99.90;;;;;;10449901;28;20049;-85
2022/01/17 21:45:02;;;;;;;95.10;37.17;;;-1.70;99.90;;;;;;10441138;28;20083;-84
2022/01/17 21:50:05;;;;;;;87.30;35.70;;;-1.70;99.90;;;;;;10429837;28;20102;-87
2022/01/17 21:55:07;;;;;;;94.83;37.50;;;-1.80;99.90;;;;;;10409996;28;20059;-84
2022/01/17 22:00:12;;;;;;;77.63;32.03;;;-1.90;99.90;;;;;;10443563;28;20351;-84
2022/01/17 22:05:14;;;;;;;66.23;25.97;;;-1.90;99.90;;;;;;10441503;28;20033;-85
2022/01/17 22:10:15;;;;;;;66.80;28.83;;;-2.00;99.90;;;;;;10445466;28;20487;-84
2022/01/17 22:15:17;;;;;;;71.23;24.03;;;-2.00;99.90;;;;;;10418156;28;20057;-85
2022/01/17 22:20:21;;;;;;;57.27;22.77;;;-2.00;99.90;;;;;;10444432;28;20402;-84
2022/01/17 22:25:22;;;;;;;68.50;22.93;;;-2.10;99.90;;;;;;10432205;28;20517;-87
2022/01/17 22:30:24;;;;;;;55.73;19.00;;;-2.00;99.90;;;;;;10422437;28;20480;-85
2022/01/17 22:35:25;;;;;;;42.43;13.57;;;-2.00;99.90;;;;;;10441215;28;20054;-85
2022/01/17 22:40:26;;;;;;;31.07;11.63;;;-2.00;99.90;;;;;;10445943;28;20517;-88
2022/01/17 22:45:27;;;;;;;52.60;14.57;;;-2.00;99.90;;;;;;10443105;28;20136;-85
2022/01/17 22:50:28;;;;;;;46.87;13.43;;;-1.80;99.90;;;;;;10421705;28;20030;-87
2022/01/17 22:55:29;;;;;;;38.83;10.97;;;-1.80;99.90;;;;;;10441141;28;20067;-85
2022/01/17 23:00:30;;;;;;;32.67;10.73;;;-1.80;99.90;;;;;;10444796;28;20053;-84
2022/01/17 23:05:32;;;;;;;44.43;12.07;;;-1.80;99.90;;;;;;10441711;28;20037;-87
2022/01/17 23:10:34;;;;;;;36.23;12.53;;;-1.70;99.90;;;;;;10425005;28;20388;-87
2022/01/17 23:15:35;;;;;;;51.27;17.27;;;-1.70;99.90;;;;;;10424788;28;20679;-85
2022/01/17 23:20:36;;;;;;;49.77;16.73;;;-1.70;99.90;;;;;;10441904;28;20104;-86
2022/01/17 23:25:36;;;;;;;62.43;20.67;;;-1.70;99.90;;;;;;10428556;28;20361;-85
2022/01/17 23:30:42;;;;;;;38.50;13.70;;;-1.80;99.90;;;;;;10443241;28;20424;-86
2022/01/17 23:35:43;;;;;;;48.47;17.00;;;-1.80;99.90;;;;;;10426068;28;20471;-85
2022/01/17 23:40:43;;;;;;;53.03;19.17;;;-1.80;99.90;;;;;;10445881;28;20017;-84
2022/01/17 23:45:44;;;;;;;53.27;15.77;;;-1.80;99.90;;;;;;10453359;28;20033;-85
2022/01/17 23:50:45;;;;;;;60.63;21.47;;;-1.90;99.90;;;;;;10455725;28;20025;-86
2022/01/17 23:55:46;;;;;;;59.53;19.67;;;-1.90;99.90;;;;;;10445595;28;20034;-86
